Parkin, AR

2:06 AM CST on February 27, 2017 (GMT -0600)
West Memphis Municipal | | Change Station

Elev 213 ft 35.14 °N, 90.23 °W | Updated 13 minutes ago

Overcast
Overcast
48 °F
Feels Like 48 °F
N
7
Wind Variable Wind from SE

Today
High -- | Low -- °F
--% Chance of Precip.
Yesterday
High -- | Low -- °F
Precip. -- in
Pressure 30.09 in
Visibility 10.0 miles
Clouds Overcast 6500 ft
Dew Point 46 °F
Humidity 93%
Rainfall 0.13 in
Snow Depth Not available.
6:34 AM 5:56 PM
New Moon, 1% visible
METAR KAWM 270753Z AUTO 13006KT 10SM -RA OVC065 09/08 A3009 RMK AO2 SLP189 P0006 T00890078
Pressure 30.09 in
Visibility 10.0 miles
Clouds Overcast 6500 ft
Dew Point 46 °F
Humidity 93%
Rainfall 0.13 in
Snow Depth Not available.
6:34 AM 5:56 PM
New Moon, 1% visible
METAR KAWM 270753Z AUTO 13006KT 10SM -RA OVC065 09/08 A3009 RMK AO2 SLP189 P0006 T00890078

Get Your Daily Forecast Email!

Thanks for signing up!

Be on the lookout for a verification email in your inbox.

You'll start receiving the daily forecast at 8 AM.

×

10-Day Weather Forecast

Almanac

Astronomy

Feb. 27, 2017 Rise Set
Actual Time
Civil Twilight
Nautical Twilight
Astronomical Twilight
Moon
Length of Visible Light
Length of Day
Tomorrow will be .
, % of the Moon is Illuminated

Today's Extremes

State Highs State Lows

Community

WunderPhotos

Upload Photos

1,962,540 photos uploaded!

WunderBlog® & News

Nearby

Air Quality

  Air Quality AQ Index Pollutant
Not available.

Snow Depth

Station Depth Elevation

Earthquake Activity

City Distance Mag. Time & Date
Minimum magnitude displayed is 2.5.

Coastal Water Temperatures

Place Temperature

Stations

Nearby Weather Stations

Station Location Temp. Windchill Dew Point Humidity Wind Precip. Elev Updated Type
                   

Watches & Warnings

There are currently no watches in effect.